Time;durP1;ratioP1;P1;durP2;ratioP2;P2;SDS_P1;SDS_P2;PMS_P1;PMS_P2;Temp;Humidity;BMP_temperature;BMP_pressure;BME280_temperature;BME280_humidity;BME280_pressure;Samples;Min_cycle;Max_cycle;Signal;HPM_P1;HPM_P2
2022/03/15 00:01:01;;;;;;;1.30;1.20;;;17.50;52.00;;;;;;5100337;28;20698;-16
2022/03/15 00:03:27;;;;;;;2.03;1.40;;;17.50;52.00;;;;;;5099886;28;20155;-21
2022/03/15 00:05:52;;;;;;;2.33;1.60;;;17.50;52.00;;;;;;5099051;28;20182;-15
2022/03/15 00:08:23;;;;;;;1.67;1.47;;;17.50;52.00;;;;;;5098955;28;20173;-22
2022/03/15 00:10:49;;;;;;;2.57;1.40;;;17.50;52.00;;;;;;5099554;28;20570;-21
2022/03/15 00:13:21;;;;;;;2.73;1.87;;;17.50;52.00;;;;;;5098489;28;20244;-18
2022/03/15 00:15:48;;;;;;;2.43;1.40;;;17.50;52.00;;;;;;5098449;28;20182;-18
2022/03/15 00:18:14;;;;;;;1.40;1.20;;;17.50;51.90;;;;;;5099617;28;20212;-20
2022/03/15 00:20:40;;;;;;;2.83;1.40;;;17.50;51.90;;;;;;5099230;28;20278;-19
2022/03/15 00:23:08;;;;;;;1.97;1.30;;;17.50;51.90;;;;;;5099450;28;20186;-17
2022/03/15 00:25:36;;;;;;;1.77;1.53;;;17.50;51.90;;;;;;5099141;28;20177;-19
2022/03/15 00:28:02;;;;;;;1.60;1.50;;;17.50;51.90;;;;;;5099411;28;20180;-18
2022/03/15 00:30:27;;;;;;;1.10;1.00;;;17.50;51.90;;;;;;5098330;28;20176;-18
2022/03/15 00:32:53;;;;;;;1.63;1.30;;;17.40;51.80;;;;;;5099112;28;20491;-19
2022/03/15 00:35:20;;;;;;;1.77;1.63;;;17.40;51.80;;;;;;5098309;28;20219;-14
2022/03/15 00:37:51;;;;;;;1.77;1.40;;;17.40;51.80;;;;;;5098949;28;20200;-18
2022/03/15 00:40:18;;;;;;;2.17;1.50;;;17.40;51.80;;;;;;5096809;28;20207;-18
2022/03/15 00:42:47;;;;;;;1.40;1.20;;;17.40;51.80;;;;;;5099253;28;20177;-20
2022/03/15 00:45:13;;;;;;;1.37;1.20;;;17.40;51.80;;;;;;5098342;28;20241;-18
2022/03/15 00:47:39;;;;;;;1.97;1.30;;;17.40;51.80;;;;;;5099210;28;20197;-20
2022/03/15 00:50:05;;;;;;;1.43;1.20;;;17.40;51.70;;;;;;5097784;28;20175;-18
2022/03/15 00:52:32;;;;;;;1.57;1.30;;;17.40;51.70;;;;;;5099219;28;20289;-17
2022/03/15 00:54:57;;;;;;;1.73;1.57;;;17.40;51.70;;;;;;5097405;28;20214;-18
2022/03/15 00:57:23;;;;;;;1.47;1.23;;;17.30;51.70;;;;;;5097058;28;20281;-18
2022/03/15 00:59:50;;;;;;;1.63;1.43;;;17.30;51.70;;;;;;5098591;28;20437;-19
2022/03/15 01:02:17;;;;;;;1.40;1.30;;;17.30;51.70;;;;;;5097163;28;20168;-21
2022/03/15 01:04:46;;;;;;;1.83;1.50;;;17.30;51.70;;;;;;5097880;28;20191;-20
2022/03/15 01:07:12;;;;;;;1.90;1.20;;;17.30;51.70;;;;;;5098003;28;20244;-17
2022/03/15 01:09:41;;;;;;;1.40;1.30;;;17.30;51.70;;;;;;5098174;28;20233;-16
2022/03/15 01:12:08;;;;;;;1.97;1.20;;;17.30;51.70;;;;;;5097823;28;20185;-17
2022/03/15 01:14:35;;;;;;;1.40;1.30;;;17.30;51.70;;;;;;5097951;28;20308;-20
2022/03/15 01:17:02;;;;;;;1.63;1.30;;;17.30;51.60;;;;;;5098437;28;20520;-20
2022/03/15 01:19:28;;;;;;;1.50;1.33;;;17.30;51.60;;;;;;5098092;28;20178;-17
2022/03/15 01:21:54;;;;;;;1.30;1.20;;;17.30;51.60;;;;;;5097301;28;20197;-17
2022/03/15 01:24:21;;;;;;;1.47;1.17;;;17.30;51.60;;;;;;5095720;28;20336;-19
2022/03/15 01:26:47;;;;;;;1.80;1.30;;;17.30;51.60;;;;;;5095528;28;20241;-20
2022/03/15 01:29:13;;;;;;;1.87;1.20;;;17.20;51.50;;;;;;5095841;28;20176;-16
2022/03/15 01:31:39;;;;;;;1.53;1.43;;;17.20;51.50;;;;;;5095658;28;20191;-17
2022/03/15 01:34:04;;;;;;;3.40;1.50;;;17.20;51.50;;;;;;5094243;28;20219;-19
2022/03/15 01:36:30;;;;;;;1.83;1.40;;;17.20;51.50;;;;;;5094314;28;20325;-20
2022/03/15 01:38:57;;;;;;;1.67;1.43;;;17.20;51.90;;;;;;5096168;28;20228;-20
2022/03/15 01:41:23;;;;;;;1.40;1.20;;;17.20;51.50;;;;;;5093925;28;20210;-15
2022/03/15 01:43:49;;;;;;;1.80;1.40;;;17.20;51.50;;;;;;5093377;28;20181;-14
2022/03/15 01:46:19;;;;;;;1.57;1.33;;;17.20;51.50;;;;;;5095110;28;20178;-19
2022/03/15 01:48:44;;;;;;;1.73;1.37;;;17.20;51.50;;;;;;5092901;28;20239;-17
2022/03/15 01:51:14;;;;;;;1.13;1.10;;;17.20;51.50;;;;;;5093942;28;20185;-17
2022/03/15 01:53:40;;;;;;;1.30;1.20;;;17.20;51.40;;;;;;5094792;28;20203;-20
2022/03/15 01:56:06;;;;;;;1.87;1.33;;;17.20;51.40;;;;;;5094471;28;20733;-18
2022/03/15 01:58:32;;;;;;;1.80;1.30;;;17.20;51.50;;;;;;5092115;28;20185;-17
2022/03/15 02:00:57;;;;;;;2.00;1.30;;;17.20;51.40;;;;;;5092358;28;20268;-18
2022/03/15 02:03:23;;;;;;;1.50;1.30;;;17.10;51.40;;;;;;5092139;28;20232;-17
2022/03/15 02:05:49;;;;;;;2.97;1.30;;;17.10;51.40;;;;;;5092887;28;20177;-17
2022/03/15 02:08:16;;;;;;;1.60;1.20;;;17.10;51.40;;;;;;5094414;28;20551;-16
2022/03/15 02:10:42;;;;;;;1.63;1.37;;;17.10;51.40;;;;;;5093736;28;20182;-20
2022/03/15 02:13:10;;;;;;;1.63;1.50;;;17.10;51.40;;;;;;5094940;28;20177;-16
2022/03/15 02:15:37;;;;;;;2.30;1.40;;;17.10;51.40;;;;;;5093253;28;20380;-15
2022/03/15 02:18:04;;;;;;;2.13;1.30;;;17.10;51.80;;;;;;5076818;28;20189;-17
2022/03/15 02:20:30;;;;;;;1.77;1.30;;;17.10;51.40;;;;;;5094321;28;20173;-20
2022/03/15 02:22:57;;;;;;;1.77;1.40;;;17.10;51.40;;;;;;5093787;28;20186;-16
2022/03/15 02:25:24;;;;;;;2.67;1.40;;;17.10;51.40;;;;;;5092508;28;20378;-17
2022/03/15 02:27:51;;;;;;;1.47;1.27;;;17.10;51.30;;;;;;5092932;28;20240;-19
2022/03/15 02:30:17;;;;;;;2.10;1.40;;;17.10;51.30;;;;;;5094765;28;20198;-21
2022/03/15 02:32:44;;;;;;;1.40;1.30;;;17.00;51.30;;;;;;5095024;28;20249;-21
2022/03/15 02:35:10;;;;;;;1.50;1.33;;;17.00;51.30;;;;;;5094178;28;20213;-19
2022/03/15 02:37:36;;;;;;;1.50;1.37;;;17.00;51.30;;;;;;5098153;28;20197;-15
2022/03/15 02:40:03;;;;;;;1.30;1.20;;;17.00;51.30;;;;;;5098112;28;20198;-16
2022/03/15 02:42:29;;;;;;;1.43;1.33;;;17.00;51.30;;;;;;5097714;28;20168;-15
2022/03/15 02:44:55;;;;;;;1.40;1.27;;;16.90;51.20;;;;;;5095662;28;20233;-16
2022/03/15 02:47:21;;;;;;;1.40;1.30;;;16.90;51.20;;;;;;5096650;28;20218;-19
2022/03/15 02:49:47;;;;;;;1.70;1.20;;;17.00;51.20;;;;;;5095019;28;20266;-16
2022/03/15 02:52:13;;;;;;;2.57;1.30;;;17.00;51.30;;;;;;5098981;28;20171;-16
2022/03/15 02:54:41;;;;;;;2.13;1.20;;;16.90;51.20;;;;;;5098176;28;20195;-17
2022/03/15 02:57:10;;;;;;;1.60;1.33;;;16.90;51.20;;;;;;5097711;28;20209;-18
2022/03/15 02:59:37;;;;;;;1.50;1.40;;;16.90;51.20;;;;;;5098790;28;20203;-15
2022/03/15 03:02:03;;;;;;;1.30;1.10;;;16.90;51.20;;;;;;5097268;28;20463;-20
2022/03/15 03:04:29;;;;;;;2.03;1.30;;;16.90;51.20;;;;;;5098110;28;20181;-18
2022/03/15 03:06:54;;;;;;;1.70;1.30;;;16.90;51.20;;;;;;5094696;28;20568;-17
2022/03/15 03:09:20;;;;;;;1.47;1.37;;;16.90;51.20;;;;;;5094710;28;20167;-15
2022/03/15 03:11:46;;;;;;;1.40;1.30;;;16.90;51.20;;;;;;5095932;28;20444;-19
2022/03/15 03:14:16;;;;;;;1.47;1.37;;;16.90;51.10;;;;;;5098088;28;20294;-16
2022/03/15 03:16:41;;;;;;;1.50;1.17;;;16.90;51.10;;;;;;5097961;28;20171;-16
2022/03/15 03:19:08;;;;;;;1.57;1.47;;;16.90;51.10;;;;;;5096972;28;20271;-17
2022/03/15 03:21:36;;;;;;;1.37;1.27;;;16.90;51.10;;;;;;5098368;28;20222;-19
2022/03/15 03:24:05;;;;;;;1.30;1.20;;;16.80;51.10;;;;;;5097487;28;20189;-19
2022/03/15 03:26:31;;;;;;;1.87;1.30;;;16.80;51.10;;;;;;5097862;28;20172;-21
2022/03/15 03:28:57;;;;;;;1.70;1.47;;;16.80;51.10;;;;;;5097037;28;20171;-20
2022/03/15 03:31:23;;;;;;;1.40;1.30;;;16.80;51.10;;;;;;5097175;28;20332;-16
2022/03/15 03:33:49;;;;;;;2.20;1.43;;;16.80;51.00;;;;;;5095785;28;20308;-15
2022/03/15 03:36:14;;;;;;;1.80;1.30;;;16.80;51.00;;;;;;5095383;28;20265;-18
2022/03/15 03:38:41;;;;;;;2.23;1.30;;;16.80;51.00;;;;;;5097485;28;20641;-17
2022/03/15 03:41:07;;;;;;;1.40;1.30;;;16.80;51.00;;;;;;5098651;28;20467;-19
2022/03/15 03:43:34;;;;;;;1.43;1.30;;;16.80;51.00;;;;;;5098370;28;20173;-17
2022/03/15 03:46:00;;;;;;;1.60;1.30;;;16.80;51.00;;;;;;5096733;28;20177;-19
2022/03/15 03:48:26;;;;;;;2.23;1.33;;;16.80;51.00;;;;;;5095828;28;20174;-18
2022/03/15 03:50:53;;;;;;;1.60;1.40;;;16.80;51.00;;;;;;5096324;28;20169;-20
2022/03/15 03:53:21;;;;;;;1.30;1.20;;;16.70;50.90;;;;;;5095906;28;20565;-17
2022/03/15 03:55:46;;;;;;;1.47;1.30;;;16.70;50.90;;;;;;5095493;28;20212;-17
2022/03/15 03:58:13;;;;;;;1.30;1.20;;;16.70;50.90;;;;;;5096054;28;20201;-18
2022/03/15 04:00:38;;;;;;;1.33;1.23;;;16.70;50.90;;;;;;5096967;28;20167;-15
2022/03/15 04:03:05;;;;;;;1.30;1.20;;;16.70;50.90;;;;;;5097289;28;20233;-21
2022/03/15 04:05:33;;;;;;;1.90;1.60;;;16.70;50.90;;;;;;5096660;28;20167;-22
2022/03/15 04:07:59;;;;;;;1.40;1.17;;;16.70;50.90;;;;;;5095232;28;20179;-14
2022/03/15 04:10:26;;;;;;;1.87;1.37;;;16.70;50.80;;;;;;5095275;28;20202;-15
2022/03/15 04:12:52;;;;;;;1.30;1.20;;;16.70;50.90;;;;;;5094833;28;20191;-20
2022/03/15 04:15:18;;;;;;;1.70;1.30;;;16.70;50.80;;;;;;5093376;28;20215;-16
2022/03/15 04:17:44;;;;;;;1.57;1.20;;;16.70;50.80;;;;;;5095212;28;20171;-18
2022/03/15 04:20:10;;;;;;;1.60;1.40;;;16.70;50.80;;;;;;5094282;28;20576;-17
2022/03/15 04:22:35;;;;;;;1.60;1.40;;;16.70;50.80;;;;;;5096730;28;20183;-20
2022/03/15 04:25:01;;;;;;;1.53;1.40;;;16.70;50.80;;;;;;5094581;28;20454;-19
2022/03/15 04:27:27;;;;;;;1.50;1.17;;;16.60;50.80;;;;;;5096065;28;20475;-17
2022/03/15 04:29:53;;;;;;;1.50;1.37;;;16.60;50.80;;;;;;5096255;28;20348;-17
2022/03/15 04:32:19;;;;;;;1.23;1.13;;;16.60;50.80;;;;;;5096259;28;20548;-18
2022/03/15 04:34:45;;;;;;;1.50;1.33;;;16.60;50.70;;;;;;5096279;28;20201;-19
2022/03/15 04:37:10;;;;;;;1.57;1.23;;;16.60;50.70;;;;;;5095911;28;20185;-14
2022/03/15 04:39:36;;;;;;;1.60;1.30;;;16.60;50.70;;;;;;5093832;28;20180;-18
2022/03/15 04:42:05;;;;;;;1.40;1.30;;;16.60;50.70;;;;;;5092320;28;20184;-17
2022/03/15 04:44:30;;;;;;;1.53;1.13;;;16.60;50.80;;;;;;5095532;28;20179;-16
2022/03/15 04:46:56;;;;;;;1.20;1.10;;;16.60;50.70;;;;;;5095005;28;20179;-19
2022/03/15 04:49:22;;;;;;;1.37;1.20;;;16.60;50.70;;;;;;5095013;28;20277;-19
2022/03/15 04:51:48;;;;;;;1.40;1.30;;;16.60;50.70;;;;;;5095461;28;20210;-14
2022/03/15 04:54:14;;;;;;;1.50;1.27;;;16.60;51.10;;;;;;5094681;28;20207;-18
2022/03/15 04:56:39;;;;;;;1.60;1.20;;;16.60;50.70;;;;;;5096091;28;20228;-17
2022/03/15 04:59:05;;;;;;;1.20;1.10;;;16.60;50.70;;;;;;5094579;28;20523;-19
2022/03/15 05:01:31;;;;;;;1.70;1.20;;;16.60;51.10;;;;;;5092947;28;20163;-20
2022/03/15 05:03:57;;;;;;;1.40;1.30;;;16.60;50.70;;;;;;5093675;28;20499;-15
2022/03/15 05:06:23;;;;;;;1.70;1.20;;;16.50;50.70;;;;;;5095930;28;20280;-19
2022/03/15 05:08:51;;;;;;;1.80;1.20;;;16.50;50.70;;;;;;5095503;28;20176;-20
2022/03/15 05:11:18;;;;;;;1.40;1.30;;;16.50;50.70;;;;;;5095082;28;20194;-17
2022/03/15 05:13:47;;;;;;;1.63;1.27;;;16.50;50.70;;;;;;5095785;28;20420;-17
2022/03/15 05:16:17;;;;;;;1.33;1.20;;;16.50;50.70;;;;;;5094143;28;20170;-17
2022/03/15 05:18:44;;;;;;;1.30;1.20;;;16.50;50.70;;;;;;5094105;28;20181;-19
2022/03/15 05:21:14;;;;;;;1.30;1.20;;;16.50;50.70;;;;;;5092114;28;20202;-17
2022/03/15 05:23:40;;;;;;;2.23;1.40;;;16.50;50.70;;;;;;5093028;28;20167;-20
2022/03/15 05:26:05;;;;;;;1.50;1.23;;;16.50;50.70;;;;;;5090907;28;20391;-18
2022/03/15 05:28:31;;;;;;;2.20;1.40;;;16.50;50.70;;;;;;5091966;28;20174;-17
2022/03/15 05:30:57;;;;;;;1.50;1.40;;;16.50;50.70;;;;;;5094014;28;20513;-18
2022/03/15 05:33:22;;;;;;;2.30;1.57;;;16.50;50.70;;;;;;5094117;28;20171;-15
2022/03/15 05:35:49;;;;;;;1.50;1.33;;;16.40;50.60;;;;;;5091139;28;20289;-16
2022/03/15 05:38:15;;;;;;;1.37;1.27;;;16.40;50.60;;;;;;5092162;28;20178;-17
2022/03/15 05:40:40;;;;;;;1.83;1.10;;;16.40;50.60;;;;;;5092295;28;20174;-19
2022/03/15 05:43:06;;;;;;;2.20;1.10;;;16.40;51.00;;;;;;5091610;28;20569;-14
2022/03/15 05:45:34;;;;;;;1.97;1.43;;;16.40;50.70;;;;;;5091652;28;20194;-17
2022/03/15 05:48:00;;;;;;;1.63;1.30;;;16.40;50.70;;;;;;5091872;28;20638;-16
2022/03/15 05:50:25;;;;;;;1.80;1.10;;;16.40;50.70;;;;;;5092947;28;20203;-15
2022/03/15 05:52:51;;;;;;;1.43;1.20;;;16.40;50.70;;;;;;5092111;28;20632;-19
2022/03/15 05:55:17;;;;;;;1.57;1.20;;;16.40;50.70;;;;;;5091766;28;20216;-16
2022/03/15 05:57:43;;;;;;;1.67;1.53;;;16.40;50.70;;;;;;5092643;28;20277;-15
2022/03/15 06:00:11;;;;;;;1.80;1.30;;;16.40;50.70;;;;;;5092007;28;20249;-19
2022/03/15 06:02:36;;;;;;;1.40;1.30;;;16.40;50.70;;;;;;5091942;28;20255;-20
2022/03/15 06:05:03;;;;;;;1.50;1.13;;;16.40;50.70;;;;;;5092812;28;20499;-17
2022/03/15 06:07:29;;;;;;;1.37;1.27;;;16.40;50.70;;;;;;5092000;28;20171;-15
2022/03/15 06:09:57;;;;;;;2.17;1.33;;;16.40;50.70;;;;;;5090604;28;20481;-19
2022/03/15 06:12:25;;;;;;;1.70;1.30;;;16.40;50.70;;;;;;5090216;28;20262;-17
2022/03/15 06:14:52;;;;;;;1.37;1.20;;;16.40;50.70;;;;;;5089244;28;20217;-16
2022/03/15 06:17:18;;;;;;;1.30;1.20;;;16.40;50.70;;;;;;5088543;28;20182;-22
2022/03/15 06:19:44;;;;;;;1.23;1.10;;;16.40;50.70;;;;;;5088612;28;20213;-17
2022/03/15 06:22:09;;;;;;;1.50;1.23;;;16.40;50.80;;;;;;5090245;28;20276;-20
2022/03/15 06:24:36;;;;;;;1.90;1.50;;;16.40;50.80;;;;;;5089849;28;20183;-16
2022/03/15 06:27:03;;;;;;;1.63;1.20;;;16.40;50.90;;;;;;5090537;28;20179;-15
2022/03/15 06:29:30;;;;;;;1.50;1.20;;;16.40;51.00;;;;;;5088443;28;20171;-16
2022/03/15 06:31:56;;;;;;;1.97;1.47;;;16.40;51.00;;;;;;5087017;28;20223;-20
2022/03/15 06:34:22;;;;;;;1.77;1.23;;;16.40;50.90;;;;;;5087973;28;20367;-18
2022/03/15 06:36:48;;;;;;;2.40;1.57;;;16.40;51.00;;;;;;5074101;28;20275;-16
2022/03/15 06:39:14;;;;;;;1.37;1.17;;;16.40;51.00;;;;;;5075507;28;20271;-20
2022/03/15 06:41:41;;;;;;;2.10;1.50;;;16.40;51.00;;;;;;5070206;28;20626;-17
2022/03/15 06:44:08;;;;;;;1.67;1.30;;;16.40;51.00;;;;;;5069270;28;20548;-18
2022/03/15 06:46:34;;;;;;;1.73;1.40;;;16.40;51.00;;;;;;5068096;28;20181;-15
2022/03/15 06:49:00;;;;;;;2.00;1.40;;;16.40;50.90;;;;;;5067381;28;20175;-18
2022/03/15 06:51:26;;;;;;;2.07;1.60;;;16.40;50.90;;;;;;5067506;28;20372;-20
2022/03/15 06:53:52;;;;;;;2.63;1.30;;;16.40;51.00;;;;;;5069120;28;20168;-19
2022/03/15 06:56:19;;;;;;;1.70;1.43;;;16.40;51.20;;;;;;5067320;28;20165;-16
2022/03/15 06:58:44;;;;;;;1.73;1.30;;;16.40;51.30;;;;;;5068555;28;20221;-21
2022/03/15 07:01:10;;;;;;;2.70;1.47;;;16.40;51.50;;;;;;5067807;28;20317;-19
2022/03/15 07:03:36;;;;;;;2.73;1.63;;;16.50;52.00;;;;;;5068248;28;20174;-19
2022/03/15 07:06:02;;;;;;;2.50;1.90;;;16.50;51.70;;;;;;5069161;28;20176;-17
2022/03/15 07:08:29;;;;;;;4.50;1.90;;;16.50;51.80;;;;;;5069434;28;20573;-20
2022/03/15 07:10:55;;;;;;;4.73;2.30;;;16.50;51.90;;;;;;5069533;28;20170;-17
2022/03/15 07:13:21;;;;;;;5.17;2.63;;;16.50;51.90;;;;;;5070177;28;20168;-20
2022/03/15 07:15:47;;;;;;;4.07;2.70;;;16.60;52.10;;;;;;5068443;28;20216;-20
2022/03/15 07:18:15;;;;;;;4.50;2.60;;;16.60;52.20;;;;;;5068641;28;20433;-18
2022/03/15 07:20:41;;;;;;;3.73;2.43;;;16.60;52.30;;;;;;5068587;28;20171;-19
2022/03/15 07:23:07;;;;;;;4.73;2.70;;;16.60;52.30;;;;;;5069157;28;20257;-14
2022/03/15 07:25:33;;;;;;;6.30;3.00;;;16.60;52.30;;;;;;5069131;28;20180;-19
2022/03/15 07:27:58;;;;;;;5.93;2.90;;;16.60;52.40;;;;;;5070724;28;20183;-22
2022/03/15 07:30:24;;;;;;;5.07;3.03;;;16.50;52.40;;;;;;5071264;28;20179;-21
2022/03/15 07:32:50;;;;;;;8.63;3.20;;;16.60;52.50;;;;;;5071571;28;20184;-15
2022/03/15 07:35:16;;;;;;;4.77;3.20;;;16.60;52.50;;;;;;5070182;28;20200;-19
2022/03/15 07:37:58;;;;;;;5.40;3.30;;;16.60;52.40;;;;;;5072239;28;20169;-18
2022/03/15 07:40:25;;;;;;;6.70;2.87;;;16.60;52.50;;;;;;5071556;28;20532;-21
2022/03/15 07:42:52;;;;;;;6.93;3.20;;;16.60;52.40;;;;;;5072012;28;20507;-18
2022/03/15 07:45:18;;;;;;;6.37;3.13;;;16.60;52.40;;;;;;5071044;28;20176;-17
2022/03/15 07:47:44;;;;;;;7.63;3.13;;;16.60;52.40;;;;;;5072004;28;20211;-21
2022/03/15 07:50:10;;;;;;;5.07;3.00;;;16.60;52.40;;;;;;5072708;28;20166;-20
2022/03/15 07:52:36;;;;;;;8.43;3.40;;;16.60;52.40;;;;;;5071615;28;20274;-14
2022/03/15 07:55:01;;;;;;;6.10;3.50;;;16.60;52.40;;;;;;5070294;28;20209;-19
2022/03/15 07:57:27;;;;;;;5.87;3.67;;;16.60;52.40;;;;;;5071073;28;20343;-17
2022/03/15 07:59:54;;;;;;;6.90;3.50;;;16.60;52.40;;;;;;5070536;28;20166;-19
2022/03/15 08:02:20;;;;;;;7.37;3.40;;;16.60;52.40;;;;;;5071744;28;20439;-17
2022/03/15 08:04:46;;;;;;;6.47;2.93;;;16.70;52.30;;;;;;5072136;28;20184;-19
2022/03/15 08:07:12;;;;;;;5.60;3.30;;;16.60;52.30;;;;;;5071518;28;20171;-17
2022/03/15 08:09:38;;;;;;;6.10;3.30;;;16.70;52.40;;;;;;5070315;28;20170;-17
2022/03/15 08:12:05;;;;;;;6.37;3.20;;;16.70;52.30;;;;;;5070639;28;20236;-19
2022/03/15 08:14:30;;;;;;;4.40;2.97;;;16.70;52.30;;;;;;5070525;28;20198;-15
2022/03/15 08:16:56;;;;;;;5.87;3.20;;;16.70;52.30;;;;;;5071270;28;20402;-21
2022/03/15 08:19:22;;;;;;;5.53;3.27;;;16.70;52.30;;;;;;5070569;28;20560;-21
2022/03/15 08:21:48;;;;;;;5.40;3.30;;;16.70;52.30;;;;;;5069927;28;20199;-19
2022/03/15 08:24:14;;;;;;;5.33;3.37;;;16.70;52.20;;;;;;5070917;28;20185;-17
2022/03/15 08:26:40;;;;;;;4.50;2.73;;;16.70;52.20;;;;;;5071650;28;20287;-19
2022/03/15 08:29:07;;;;;;;5.20;3.00;;;16.70;52.20;;;;;;5069199;28;20180;-18
2022/03/15 08:31:33;;;;;;;10.00;3.40;;;16.70;52.20;;;;;;5070950;28;20228;-17
2022/03/15 08:33:59;;;;;;;6.23;3.30;;;16.70;52.20;;;;;;5069195;28;20424;-22
2022/03/15 08:36:24;;;;;;;7.53;3.03;;;16.80;52.20;;;;;;5067508;28;20268;-20
2022/03/15 08:38:50;;;;;;;4.10;2.97;;;16.80;52.10;;;;;;5068551;28;20167;-20
2022/03/15 08:41:16;;;;;;;4.80;3.00;;;16.70;52.20;;;;;;5069263;28;20170;-21
2022/03/15 08:43:42;;;;;;;5.50;2.90;;;16.80;52.10;;;;;;5068939;28;20171;-18
2022/03/15 08:46:08;;;;;;;5.03;2.80;;;16.80;52.10;;;;;;5069774;28;20436;-18
2022/03/15 08:48:34;;;;;;;5.17;3.20;;;16.80;52.10;;;;;;5069163;28;20170;-21
2022/03/15 08:51:01;;;;;;;5.47;2.83;;;16.80;52.10;;;;;;5070388;28;20224;-16
2022/03/15 08:53:28;;;;;;;5.67;2.70;;;16.80;52.10;;;;;;5069970;28;20514;-18
2022/03/15 08:55:55;;;;;;;4.23;2.77;;;16.80;52.10;;;;;;5068532;28;20507;-16
2022/03/15 08:58:21;;;;;;;4.87;2.97;;;16.80;52.00;;;;;;5070003;28;20171;-19
2022/03/15 09:00:48;;;;;;;5.00;2.57;;;16.80;52.10;;;;;;5069011;28;20450;-18
2022/03/15 09:03:14;;;;;;;5.00;2.97;;;16.80;52.10;;;;;;5069470;28;20196;-23
2022/03/15 09:05:40;;;;;;;5.13;2.90;;;16.80;52.00;;;;;;5069630;28;20202;-18
2022/03/15 09:08:11;;;;;;;5.17;2.60;;;16.80;52.00;;;;;;5069717;28;20171;-20
2022/03/15 09:10:36;;;;;;;4.23;2.60;;;16.80;52.10;;;;;;5069302;28;20175;-17
2022/03/15 09:13:03;;;;;;;3.80;2.70;;;16.80;52.10;;;;;;5070277;28;20458;-16
2022/03/15 09:15:30;;;;;;;4.50;2.43;;;16.80;52.10;;;;;;5066382;28;20473;-17
2022/03/15 09:17:58;;;;;;;4.33;2.83;;;16.80;52.00;;;;;;5067965;28;20272;-16
2022/03/15 09:20:25;;;;;;;4.30;2.80;;;16.80;52.10;;;;;;5068511;28;20547;-19
2022/03/15 09:22:51;;;;;;;7.43;3.10;;;16.80;52.10;;;;;;5067279;28;20252;-22
2022/03/15 09:25:17;;;;;;;4.17;2.70;;;16.80;52.10;;;;;;5070383;28;20453;-21
2022/03/15 09:27:43;;;;;;;6.50;2.80;;;16.80;52.10;;;;;;5067707;28;20425;-18
2022/03/15 09:30:10;;;;;;;5.10;2.50;;;16.90;52.10;;;;;;5070135;28;20232;-18
2022/03/15 09:32:35;;;;;;;5.57;3.00;;;16.90;52.20;;;;;;5069474;28;20184;-19
2022/03/15 09:35:01;;;;;;;4.07;2.97;;;16.90;52.20;;;;;;5069362;28;20201;-21
2022/03/15 09:37:27;;;;;;;7.57;3.03;;;16.90;52.20;;;;;;5069012;28;20176;-18
2022/03/15 09:39:54;;;;;;;5.33;2.53;;;16.90;52.30;;;;;;5069991;28;20231;-19
2022/03/15 09:42:22;;;;;;;4.80;2.37;;;16.90;52.30;;;;;;5067654;28;20565;-21
2022/03/15 09:44:48;;;;;;;5.07;2.73;;;16.90;52.30;;;;;;5069838;28;20500;-18
2022/03/15 09:47:17;;;;;;;5.03;3.27;;;16.90;52.20;;;;;;5067906;28;20177;-19
2022/03/15 09:49:45;;;;;;;3.73;2.70;;;16.90;52.20;;;;;;5069001;28;20370;-21
2022/03/15 09:52:11;;;;;;;4.30;2.60;;;17.00;52.20;;;;;;5069457;28;20170;-22
2022/03/15 09:54:39;;;;;;;5.73;2.80;;;16.90;52.10;;;;;;5068018;28;20391;-23
2022/03/15 09:57:06;;;;;;;3.70;2.60;;;17.00;52.10;;;;;;5068799;28;20227;-18
2022/03/15 09:59:33;;;;;;;4.90;2.70;;;17.00;52.10;;;;;;5070169;28;20167;-21
2022/03/15 10:01:59;;;;;;;3.90;2.07;;;17.00;52.00;;;;;;5068175;28;20589;-16
2022/03/15 10:04:26;;;;;;;5.13;2.53;;;17.00;52.00;;;;;;5068998;28;20230;-22
2022/03/15 10:06:52;;;;;;;5.63;2.60;;;17.00;52.00;;;;;;5051242;28;20181;-18
2022/03/15 10:09:19;;;;;;;4.77;2.57;;;17.00;52.00;;;;;;5068538;28;20574;-17
2022/03/15 10:11:45;;;;;;;5.50;2.60;;;17.00;52.00;;;;;;5068882;28;20172;-17
2022/03/15 10:14:11;;;;;;;6.47;3.00;;;17.00;51.90;;;;;;5066926;28;20463;-15
2022/03/15 10:16:42;;;;;;;4.23;2.33;;;17.00;51.90;;;;;;5067459;28;20170;-19
2022/03/15 10:19:14;;;;;;;4.23;2.67;;;17.10;51.90;;;;;;5066449;28;20178;-18
2022/03/15 10:21:53;;;;;;;4.10;3.03;;;17.10;52.00;;;;;;5065634;28;20575;-17
2022/03/15 10:24:24;;;;;;;3.87;2.50;;;17.10;52.00;;;;;;5065590;28;20182;-18
2022/03/15 10:26:55;;;;;;;4.93;2.70;;;17.10;52.00;;;;;;5068675;28;20260;-18
2022/03/15 10:29:25;;;;;;;4.87;2.70;;;17.10;51.90;;;;;;5064937;28;20172;-17
2022/03/15 10:31:54;;;;;;;5.60;2.60;;;17.10;51.90;;;;;;5067121;28;20218;-19
2022/03/15 10:34:22;;;;;;;4.10;2.30;;;17.10;51.90;;;;;;5068599;28;20201;-20
2022/03/15 10:36:51;;;;;;;4.23;2.50;;;17.10;51.90;;;;;;5069271;28;20644;-17
2022/03/15 10:39:19;;;;;;;3.67;2.40;;;17.10;51.90;;;;;;5067580;28;20178;-14
2022/03/15 10:42:22;;;;;;;5.13;2.97;;;17.10;51.90;;;;;;5067611;28;20173;-20
2022/03/15 10:44:47;;;;;;;3.63;2.33;;;17.10;51.90;;;;;;5056976;28;20209;-19
2022/03/15 10:47:15;;;;;;;4.30;2.40;;;17.10;51.90;;;;;;5069265;28;20177;-18
2022/03/15 10:49:49;;;;;;;4.87;2.33;;;17.10;51.90;;;;;;5067721;28;20362;-14
2022/03/15 10:52:45;;;;;;;4.27;2.37;;;17.10;51.90;;;;;;5064983;28;20250;-17
2022/03/15 10:55:24;;;;;;;2.90;2.17;;;17.20;51.90;;;;;;5066037;28;20211;-19
2022/03/15 10:57:53;;;;;;;3.83;2.53;;;17.20;51.90;;;;;;5070096;28;20272;-21
2022/03/15 11:00:24;;;;;;;3.80;2.50;;;17.20;51.90;;;;;;5069417;28;20685;-21
2022/03/15 11:02:51;;;;;;;3.77;2.47;;;17.20;52.20;;;;;;5071194;28;20175;-16
2022/03/15 11:05:34;;;;;;;3.63;2.17;;;17.20;52.20;;;;;;5071518;28;20173;-17
2022/03/15 11:08:27;;;;;;;3.43;2.20;;;17.20;51.80;;;;;;5071933;28;20553;-14
2022/03/15 11:10:54;;;;;;;3.63;2.40;;;17.20;51.80;;;;;;5070132;28;20185;-19
2022/03/15 11:13:29;;;;;;;3.10;2.37;;;17.20;51.80;;;;;;5071833;28;20345;-22
2022/03/15 11:15:57;;;;;;;3.90;2.30;;;17.20;51.80;;;;;;5071270;28;20212;-21
2022/03/15 11:18:26;;;;;;;3.23;2.20;;;17.20;51.80;;;;;;5069362;28;20180;-20
2022/03/15 11:20:52;;;;;;;5.30;2.23;;;17.30;51.80;;;;;;5067836;28;20379;-18
2022/03/15 11:23:22;;;;;;;6.10;2.57;;;17.30;51.80;;;;;;5067912;28;20170;-20
2022/03/15 11:25:57;;;;;;;3.40;2.33;;;17.30;51.70;;;;;;5069195;28;20171;-22
2022/03/15 11:28:26;;;;;;;5.00;2.30;;;17.30;51.70;;;;;;5071425;28;20189;-18
2022/03/15 11:30:53;;;;;;;3.63;2.10;;;17.30;51.70;;;;;;5072631;28;20579;-17
2022/03/15 11:33:20;;;;;;;3.23;2.37;;;17.30;51.70;;;;;;5070677;28;20284;-17
2022/03/15 11:35:46;;;;;;;2.70;1.93;;;17.30;51.70;;;;;;5070169;28;20272;-20
2022/03/15 11:38:15;;;;;;;4.53;2.30;;;17.30;51.60;;;;;;5071116;28;20171;-17
2022/03/15 11:40:45;;;;;;;3.87;2.17;;;17.30;51.60;;;;;;5070208;28;20402;-21
2022/03/15 11:43:37;;;;;;;4.47;2.40;;;17.30;51.60;;;;;;5069353;28;20175;-16
2022/03/15 11:46:18;;;;;;;3.40;2.13;;;17.30;51.60;;;;;;5050136;28;20196;-19
2022/03/15 11:49:05;;;;;;;5.43;2.23;;;17.30;51.60;;;;;;5069583;28;20170;-21
2022/03/15 11:52:02;;;;;;;4.83;2.13;;;17.30;51.60;;;;;;5069681;28;20175;-21
2022/03/15 11:54:36;;;;;;;3.80;2.40;;;17.30;51.60;;;;;;5069221;28;20214;-21
2022/03/15 11:57:40;;;;;;;3.07;1.90;;;17.30;51.60;;;;;;5069058;28;20178;-16
2022/03/15 12:00:06;;;;;;;3.23;1.97;;;17.40;51.70;;;;;;5055555;28;20652;-19
2022/03/15 12:02:39;;;;;;;3.03;2.00;;;17.40;51.70;;;;;;5067832;28;20191;-18
2022/03/15 12:05:20;;;;;;;3.20;2.10;;;17.40;51.70;;;;;;5070021;28;20176;-17
2022/03/15 12:08:11;;;;;;;2.47;1.93;;;17.40;51.60;;;;;;5069003;28;20179;-21
2022/03/15 12:10:38;;;;;;;3.80;2.20;;;17.40;51.70;;;;;;5065841;28;20175;-15
2022/03/15 12:13:05;;;;;;;4.50;1.97;;;17.40;51.60;;;;;;5068316;28;20557;-17
2022/03/15 12:15:42;;;;;;;3.33;2.13;;;17.40;51.60;;;;;;5069830;28;20437;-19
2022/03/15 12:18:26;;;;;;;3.67;1.80;;;17.40;51.60;;;;;;5095609;28;20197;-20
2022/03/15 12:21:09;;;;;;;2.70;2.07;;;17.40;51.60;;;;;;5096247;28;20261;-21
2022/03/15 12:23:55;;;;;;;3.43;1.80;;;17.40;51.60;;;;;;5091396;28;20185;-19
2022/03/15 12:26:29;;;;;;;4.57;2.10;;;17.40;51.60;;;;;;5088295;28;20244;-20
2022/03/15 12:28:59;;;;;;;3.57;1.87;;;17.50;52.00;;;;;;5090076;28;20170;-20
2022/03/15 12:31:33;;;;;;;3.80;1.97;;;17.40;51.60;;;;;;5090372;28;20189;-18
2022/03/15 12:34:08;;;;;;;3.10;1.90;;;17.40;51.50;;;;;;5087884;28;20631;-17
2022/03/15 12:36:51;;;;;;;3.43;1.80;;;17.50;51.50;;;;;;5088095;28;20311;-17
2022/03/15 12:39:23;;;;;;;4.03;2.00;;;17.50;51.50;;;;;;5087613;28;20239;-17
2022/03/15 12:42:03;;;;;;;1.93;1.73;;;17.50;51.50;;;;;;5089047;28;20166;-19
2022/03/15 12:44:49;;;;;;;2.93;1.90;;;17.50;51.50;;;;;;5088060;28;20179;-20
2022/03/15 12:47:25;;;;;;;2.07;1.63;;;17.50;51.40;;;;;;5088491;28;20556;-20
2022/03/15 12:50:10;;;;;;;3.07;2.07;;;17.50;51.40;;;;;;5087132;28;20340;-18
2022/03/15 12:52:42;;;;;;;4.40;1.80;;;17.50;51.40;;;;;;5088212;28;20182;-23